createdAt,value
2022-08-19T00:02:03.318Z,24.05
2022-08-19T00:04:34.022Z,23.74
2022-08-19T00:07:02.428Z,23.77
2022-08-19T00:09:32.039Z,24.15
2022-08-19T00:12:00.783Z,23.87
2022-08-19T00:14:32.800Z,23.48
2022-08-19T00:17:02.042Z,23.88
2022-08-19T00:19:30.646Z,23.96
2022-08-19T00:21:58.966Z,24.26
2022-08-19T00:24:29.792Z,24.26
2022-08-19T00:27:04.941Z,24.46
2022-08-19T00:29:52.200Z,24.27
2022-08-19T00:32:21.348Z,24.10
2022-08-19T00:34:49.575Z,24.06
2022-08-19T00:37:17.752Z,24.35
2022-08-19T00:39:46.059Z,24.28
2022-08-19T00:42:19.272Z,24.39
2022-08-19T00:44:47.638Z,24.47
2022-08-19T00:47:16.158Z,24.25
2022-08-19T00:49:51.568Z,24.34
2022-08-19T00:52:22.401Z,24.59
2022-08-19T00:54:52.908Z,24.07
2022-08-19T00:57:26.758Z,24.19
2022-08-19T01:00:01.467Z,24.41
2022-08-19T01:02:33.545Z,24.33
2022-08-19T01:05:02.874Z,24.22
2022-08-19T01:07:35.926Z,23.77
2022-08-19T01:10:09.314Z,24.22
2022-08-19T01:12:39.695Z,23.95
2022-08-19T01:15:10.081Z,24.45
2022-08-19T01:17:39.114Z,24.03
2022-08-19T01:20:10.064Z,24.23
2022-08-19T01:22:43.274Z,23.76
2022-08-19T01:25:15.112Z,24.09
2022-08-19T01:27:45.467Z,24.17
2022-08-19T01:30:16.247Z,23.58
2022-08-19T01:32:44.581Z,23.99
2022-08-19T01:35:14.529Z,23.79
2022-08-19T01:37:50.515Z,24.18
2022-08-19T01:40:21.303Z,23.89
2022-08-19T01:42:50.094Z,24.19
2022-08-19T01:45:19.239Z,24.35
2022-08-19T01:48:01.019Z,23.75
2022-08-19T01:50:32.073Z,23.98
2022-08-19T01:53:06.581Z,23.96
2022-08-19T01:55:40.779Z,23.77
2022-08-19T01:58:13.504Z,23.51
2022-08-19T02:00:41.971Z,23.91
2022-08-19T02:03:11.070Z,23.54
2022-08-19T02:05:39.431Z,23.99
2022-08-19T02:08:11.164Z,23.76
2022-08-19T02:10:42.616Z,23.90
2022-08-19T02:13:11.408Z,23.56
2022-08-19T02:15:39.785Z,23.83
2022-08-19T02:18:09.333Z,23.67
2022-08-19T02:20:38.309Z,23.65
2022-08-19T02:23:13.509Z,23.29
2022-08-19T02:25:45.440Z,23.56
2022-08-19T02:28:18.299Z,23.51
2022-08-19T02:30:49.014Z,23.55
2022-08-19T02:33:17.656Z,23.75
2022-08-19T02:35:46.178Z,23.78
2022-08-19T02:38:29.521Z,23.91
2022-08-19T02:41:01.578Z,23.81
2022-08-19T02:43:32.267Z,23.83
2022-08-19T02:46:03.501Z,23.66
2022-08-19T02:48:33.950Z,23.78
2022-08-19T02:51:02.509Z,24.05
2022-08-19T02:53:31.214Z,24.34
2022-08-19T02:56:00.831Z,24.36
2022-08-19T02:58:29.092Z,23.75
2022-08-19T03:00:58.625Z,24.07
2022-08-19T03:03:27.267Z,24.05
2022-08-19T03:06:06.554Z,23.98
2022-08-19T03:08:34.799Z,24.24
2022-08-19T03:11:04.932Z,24.22
2022-08-19T03:13:33.585Z,24.49
2022-08-19T03:16:01.806Z,24.26
2022-08-19T03:18:30.000Z,23.98
2022-08-19T03:20:58.379Z,24.30
2022-08-19T03:23:26.620Z,24.22
2022-08-19T03:26:03.179Z,24.50
2022-08-19T03:28:49.453Z,24.49
2022-08-19T03:31:44.049Z,24.39
2022-08-19T03:34:12.697Z,24.38
2022-08-19T03:36:42.007Z,24.65
2022-08-19T03:39:11.624Z,24.85
2022-08-19T03:41:45.651Z,24.73
2022-08-19T03:44:17.820Z,24.02
2022-08-19T03:46:47.992Z,23.77
2022-08-19T03:49:18.453Z,23.63
2022-08-19T03:51:48.217Z,23.42
2022-08-19T03:54:18.484Z,23.27
2022-08-19T03:56:48.807Z,23.22
2022-08-19T03:59:21.972Z,23.28
2022-08-19T04:01:50.185Z,23.58
2022-08-19T04:04:20.036Z,23.76
2022-08-19T04:06:48.889Z,24.35
2022-08-19T04:09:17.099Z,24.12
2022-08-19T04:11:48.170Z,24.14
2022-08-19T04:14:20.438Z,23.89
2022-08-19T04:16:49.697Z,24.03
2022-08-19T04:19:19.226Z,23.54
2022-08-19T04:21:48.634Z,23.50
2022-08-19T04:24:17.600Z,23.53
2022-08-19T04:26:48.169Z,23.75
2022-08-19T04:29:20.688Z,23.77
2022-08-19T04:31:49.016Z,24.29
2022-08-19T04:34:23.196Z,24.42
2022-08-19T04:36:52.950Z,24.56
2022-08-19T04:39:23.943Z,24.25
2022-08-19T04:42:21.874Z,25.06
2022-08-19T04:45:00.764Z,25.80
2022-08-19T04:47:49.340Z,25.73
2022-08-19T04:50:17.898Z,25.79
2022-08-19T04:52:47.329Z,25.77
2022-08-19T04:55:15.947Z,26.05
2022-08-19T04:57:44.236Z,26.16
2022-08-19T05:00:14.742Z,26.22
2022-08-19T05:02:43.015Z,26.19
2022-08-19T05:05:11.650Z,26.32
2022-08-19T05:07:41.812Z,26.60
2022-08-19T05:10:11.183Z,26.43
2022-08-19T05:12:39.434Z,26.39
2022-08-19T05:15:09.560Z,26.40
2022-08-19T05:17:39.451Z,26.54
2022-08-19T05:20:27.191Z,26.33
2022-08-19T05:22:55.701Z,26.63
2022-08-19T05:25:26.638Z,26.80
2022-08-19T05:27:54.830Z,26.75
2022-08-19T05:30:33.476Z,27.05
2022-08-19T05:33:12.410Z,26.88
2022-08-19T05:35:42.123Z,27.28
2022-08-19T05:38:11.947Z,27.30
2022-08-19T05:40:40.921Z,27.56
2022-08-19T05:43:10.251Z,27.83
2022-08-19T05:45:41.168Z,28.07
2022-08-19T05:48:12.090Z,28.17
2022-08-19T05:50:42.897Z,27.79
2022-08-19T05:53:11.375Z,28.07
2022-08-19T05:55:40.712Z,27.55
2022-08-19T05:58:09.110Z,28.02
2022-08-19T06:00:38.000Z,27.84
2022-08-19T06:03:12.467Z,27.73
2022-08-19T06:05:50.223Z,28.23
2022-08-19T06:08:34.393Z,28.14
2022-08-19T06:11:21.694Z,28.11
2022-08-19T06:13:52.043Z,28.16
2022-08-19T06:16:28.928Z,27.77
2022-08-19T06:18:58.944Z,27.97
2022-08-19T06:21:30.127Z,28.11
2022-08-19T06:23:59.420Z,27.87
2022-08-19T06:26:28.382Z,27.90
2022-08-19T06:28:56.660Z,28.11
2022-08-19T06:31:28.385Z,27.38
2022-08-19T06:33:56.766Z,27.28
2022-08-19T06:36:32.777Z,27.29
2022-08-19T06:39:01.475Z,27.94
2022-08-19T06:41:31.674Z,27.99
2022-08-19T06:44:00.090Z,28.29
2022-08-19T06:46:29.517Z,28.67
2022-08-19T06:49:01.960Z,28.24
2022-08-19T06:54:06.139Z,28.82
2022-08-19T06:56:47.713Z,29.08
2022-08-19T06:59:18.803Z,29.05
2022-08-19T07:01:49.212Z,29.11
2022-08-19T07:04:19.326Z,29.03
2022-08-19T07:06:55.304Z,29.00
2022-08-19T07:09:24.333Z,29.00
2022-08-19T07:11:54.443Z,28.72
2022-08-19T07:14:26.199Z,28.70
2022-08-19T07:16:56.284Z,28.46
2022-08-19T07:19:27.203Z,28.86
2022-08-19T07:21:57.482Z,29.08
2022-08-19T07:24:27.338Z,29.24
2022-08-19T07:27:03.481Z,28.70
2022-08-19T07:29:36.757Z,28.21
2022-08-19T07:32:07.037Z,27.86
2022-08-19T07:34:40.157Z,28.05
2022-08-19T07:37:09.839Z,28.35
2022-08-19T07:39:38.912Z,27.67
2022-08-19T07:42:09.970Z,27.71
2022-08-19T07:44:42.450Z,27.32
2022-08-19T07:47:47.616Z,27.35
2022-08-19T07:50:10.458Z,27.41
2022-08-19T07:52:40.844Z,27.33
2022-08-19T07:55:42.143Z,27.21
2022-08-19T07:57:59.604Z,27.05
2022-08-19T08:00:28.205Z,26.61
2022-08-19T08:02:56.519Z,26.67
2022-08-19T08:05:43.599Z,26.31
2022-08-19T08:08:32.143Z,26.13
2022-08-19T08:11:00.641Z,25.95
2022-08-19T08:13:29.294Z,25.93
2022-08-19T08:15:57.757Z,25.93
2022-08-19T08:18:27.449Z,25.70
2022-08-19T08:20:56.789Z,25.68
2022-08-19T08:23:27.473Z,25.58
2022-08-19T08:25:58.284Z,25.17
2022-08-19T08:28:29.589Z,25.32
2022-08-19T08:30:59.275Z,24.76
2022-08-19T08:33:33.801Z,25.06
2022-08-19T08:36:04.263Z,25.07
2022-08-19T08:38:39.925Z,25.38
2022-08-19T08:41:13.614Z,25.18
2022-08-19T08:43:44.064Z,24.98
2022-08-19T08:46:31.688Z,25.27
2022-08-19T08:49:08.565Z,25.08
2022-08-19T08:54:16.579Z,25.49
2022-08-19T08:56:45.938Z,25.93
2022-08-19T08:59:19.349Z,25.69
2022-08-19T09:01:47.598Z,25.87
2022-08-19T09:04:15.934Z,26.32
2022-08-19T09:06:51.621Z,26.38
2022-08-19T09:09:23.784Z,26.68
2022-08-19T09:12:00.856Z,26.72
2022-08-19T09:14:51.161Z,26.52
2022-08-19T09:17:29.220Z,26.14
2022-08-19T09:19:59.381Z,26.76
2022-08-19T09:22:29.952Z,27.18
2022-08-19T09:24:59.666Z,27.23
2022-08-19T09:27:41.784Z,26.73
2022-08-19T09:30:20.843Z,26.51
2022-08-19T09:32:53.095Z,26.78
2022-08-19T09:35:23.178Z,27.07
2022-08-19T09:37:57.542Z,27.32
2022-08-19T09:40:30.324Z,27.68
2022-08-19T09:43:10.105Z,28.52
2022-08-19T09:45:42.150Z,28.99
2022-08-19T09:48:11.840Z,28.71
2022-08-19T09:50:51.914Z,29.27
2022-08-19T09:53:25.633Z,29.12
2022-08-19T09:55:57.141Z,29.34
2022-08-19T09:58:28.720Z,28.50
2022-08-19T10:00:57.289Z,29.05
2022-08-19T10:03:29.943Z,28.89
2022-08-19T10:06:00.089Z,29.31
2022-08-19T10:08:31.323Z,29.66
2022-08-19T10:11:28.724Z,29.85
2022-08-19T10:13:50.954Z,30.06
2022-08-19T10:16:22.569Z,29.86
2022-08-19T10:18:58.709Z,29.34
2022-08-19T10:21:29.683Z,29.10
2022-08-19T10:24:04.879Z,29.50
2022-08-19T10:26:37.228Z,29.77
2022-08-19T10:29:09.328Z,29.50
2022-08-19T10:32:02.238Z,28.84
2022-08-19T10:34:28.501Z,28.98
2022-08-19T10:37:00.806Z,29.22
2022-08-19T10:39:32.605Z,29.34
2022-08-19T10:42:11.602Z,29.44
2022-08-19T10:44:40.520Z,29.78
2022-08-19T10:47:17.572Z,30.08
2022-08-19T10:50:13.386Z,31.03
2022-08-19T10:52:48.970Z,31.28
2022-08-19T10:55:37.571Z,30.97
2022-08-19T10:58:12.653Z,31.58
2022-08-19T11:00:41.585Z,31.50
2022-08-19T11:03:10.339Z,30.96
2022-08-19T11:05:40.674Z,31.51
2022-08-19T11:08:22.170Z,31.74
2022-08-19T11:11:00.329Z,31.87
2022-08-19T11:13:30.958Z,31.99
2022-08-19T11:16:07.618Z,32.52
2022-08-19T11:18:38.408Z,32.99
2022-08-19T11:21:12.116Z,32.51
2022-08-19T11:23:40.796Z,32.34
2022-08-19T11:26:09.431Z,31.64
2022-08-19T11:28:39.817Z,32.53
2022-08-19T11:31:12.933Z,33.23
2022-08-19T11:33:41.814Z,33.03
2022-08-19T11:36:16.453Z,33.28
2022-08-19T11:38:45.828Z,32.46
2022-08-19T11:41:14.414Z,32.34
2022-08-19T11:43:44.489Z,32.23
2022-08-19T11:46:15.151Z,32.66
2022-08-19T11:48:44.135Z,32.87
2022-08-19T11:51:14.693Z,33.09
2022-08-19T11:53:44.152Z,32.74
2022-08-19T11:56:13.464Z,32.61
2022-08-19T11:58:44.684Z,33.40
2022-08-19T12:01:16.626Z,33.79
2022-08-19T12:03:46.155Z,34.00
2022-08-19T12:06:17.259Z,34.85
2022-08-19T12:08:46.850Z,34.92
2022-08-19T12:11:16.378Z,35.34
2022-08-19T12:13:46.890Z,34.86
2022-08-19T12:16:16.808Z,34.90
2022-08-19T12:18:47.323Z,34.62
2022-08-19T12:21:16.117Z,35.10
2022-08-19T12:23:46.017Z,34.94
2022-08-19T12:26:14.410Z,35.59
2022-08-19T12:28:42.583Z,36.23
2022-08-19T12:31:13.563Z,36.75
2022-08-19T12:33:42.008Z,36.46
2022-08-19T12:36:12.786Z,34.66
2022-08-19T12:38:41.484Z,35.16
2022-08-19T12:41:13.444Z,34.71
2022-08-19T12:43:42.351Z,35.08
2022-08-19T12:46:12.753Z,34.10
2022-08-19T12:48:42.883Z,34.70
2022-08-19T12:51:13.258Z,34.97
2022-08-19T12:53:42.031Z,36.30
2022-08-19T12:56:12.358Z,36.61
2022-08-19T12:58:48.986Z,36.72
2022-08-19T13:01:22.837Z,36.70
2022-08-19T13:03:53.589Z,37.17
2022-08-19T13:06:22.412Z,37.08
2022-08-19T13:08:50.692Z,36.45
2022-08-19T13:11:21.211Z,36.49
2022-08-19T13:13:52.007Z,36.48
2022-08-19T13:16:23.017Z,34.93
2022-08-19T13:18:52.429Z,34.82
2022-08-19T13:21:22.609Z,34.33
2022-08-19T13:23:52.256Z,34.76
2022-08-19T13:26:20.728Z,33.74
2022-08-19T13:29:06.158Z,34.06
2022-08-19T13:31:54.933Z,34.53
2022-08-19T13:34:31.218Z,33.69
2022-08-19T13:37:00.036Z,33.72
2022-08-19T13:39:28.463Z,33.55
2022-08-19T13:41:57.041Z,33.52
2022-08-19T13:44:25.307Z,34.58
2022-08-19T13:46:54.958Z,35.27
2022-08-19T13:49:24.230Z,35.45
2022-08-19T13:51:52.538Z,36.32
2022-08-19T13:54:20.697Z,36.05
2022-08-19T13:56:49.645Z,35.80
2022-08-19T13:59:18.690Z,36.16
2022-08-19T14:01:46.893Z,36.07
2022-08-19T14:04:16.524Z,36.77
2022-08-19T14:06:44.874Z,37.83
2022-08-19T14:09:13.187Z,37.38
2022-08-19T14:11:41.598Z,36.23
2022-08-19T14:14:12.247Z,36.34
2022-08-19T14:16:44.568Z,37.86
2022-08-19T14:19:12.882Z,38.58
2022-08-19T14:21:43.221Z,37.45
2022-08-19T14:24:11.395Z,38.64
2022-08-19T14:26:39.956Z,38.89
2022-08-19T14:29:08.207Z,38.99
2022-08-19T14:31:36.412Z,37.19
2022-08-19T14:34:04.638Z,38.10
2022-08-19T14:36:38.997Z,38.39
2022-08-19T14:39:08.852Z,38.45
2022-08-19T14:41:38.558Z,38.98
2022-08-19T14:44:06.998Z,39.16
2022-08-19T14:46:35.228Z,38.76
2022-08-19T14:49:09.425Z,37.73
2022-08-19T14:51:38.044Z,37.56
2022-08-19T14:54:06.581Z,36.40
2022-08-19T14:56:36.234Z,36.28
2022-08-19T14:59:05.102Z,36.68
2022-08-19T15:01:33.340Z,37.68
2022-08-19T15:04:01.613Z,37.06
2022-08-19T15:06:30.101Z,36.93
2022-08-19T15:09:03.371Z,36.05
2022-08-19T15:11:33.453Z,35.74
2022-08-19T15:14:03.446Z,35.68
2022-08-19T15:16:31.690Z,35.00
2022-08-19T15:19:01.069Z,34.55
2022-08-19T15:21:30.249Z,34.13
2022-08-19T15:23:59.682Z,35.01
2022-08-19T15:26:29.123Z,34.92
2022-08-19T15:28:57.337Z,35.05
2022-08-19T15:31:29.094Z,35.04
2022-08-19T15:33:58.860Z,35.28
2022-08-19T15:36:27.762Z,35.15
2022-08-19T15:38:56.135Z,34.39
2022-08-19T15:41:27.091Z,34.53
2022-08-19T15:43:57.147Z,34.01
2022-08-19T15:46:29.275Z,33.69
2022-08-19T15:49:00.286Z,33.44
2022-08-19T15:51:30.427Z,33.28
2022-08-19T15:53:58.861Z,33.13
2022-08-19T15:56:27.715Z,33.33
2022-08-19T15:59:13.262Z,33.24
2022-08-19T16:02:00.491Z,33.13
2022-08-19T16:04:46.243Z,33.12
2022-08-19T16:07:14.434Z,33.19
2022-08-19T16:09:50.734Z,33.00
2022-08-19T16:12:19.250Z,32.84
2022-08-19T16:14:48.653Z,32.54
2022-08-19T16:17:18.292Z,32.31
2022-08-19T16:19:49.589Z,32.02
2022-08-19T16:22:21.051Z,31.90
2022-08-19T16:24:49.320Z,32.05
2022-08-19T16:27:17.928Z,32.10
2022-08-19T16:29:46.153Z,31.94
2022-08-19T16:32:14.430Z,31.46
2022-08-19T16:34:44.675Z,31.06
2022-08-19T16:37:13.493Z,30.96
2022-08-19T16:39:43.738Z,31.21
2022-08-19T16:42:14.072Z,31.17
2022-08-19T16:44:45.075Z,31.21
2022-08-19T16:47:13.583Z,31.02
2022-08-19T16:49:54.104Z,30.99
2022-08-19T16:52:27.105Z,31.07
2022-08-19T16:54:55.940Z,30.42
2022-08-19T16:57:24.952Z,30.38
2022-08-19T16:59:53.495Z,30.68
2022-08-19T17:02:29.465Z,30.71
2022-08-19T17:04:59.828Z,30.36
2022-08-19T17:07:29.443Z,30.41
2022-08-19T17:10:02.529Z,30.49
2022-08-19T17:12:32.115Z,29.37
2022-08-19T17:15:02.265Z,29.34
2022-08-19T17:17:31.896Z,29.26
2022-08-19T17:20:02.731Z,28.89
2022-08-19T17:22:30.951Z,28.50
2022-08-19T17:24:59.339Z,28.47
2022-08-19T17:27:32.435Z,28.74
2022-08-19T17:30:02.636Z,28.76
2022-08-19T17:32:35.442Z,28.75
2022-08-19T17:35:05.681Z,28.79
2022-08-19T17:37:35.046Z,28.59
2022-08-19T17:40:04.000Z,28.34
2022-08-19T17:42:32.450Z,28.19
2022-08-19T17:45:00.736Z,28.15
2022-08-19T17:47:29.858Z,28.20
2022-08-19T17:49:59.329Z,28.21
2022-08-19T17:52:29.064Z,28.09
2022-08-19T17:54:57.450Z,28.16
2022-08-19T17:57:25.948Z,28.11
2022-08-19T17:59:55.434Z,28.56
2022-08-19T18:02:25.214Z,28.40
2022-08-19T18:04:53.706Z,27.74
2022-08-19T18:07:22.638Z,27.90
2022-08-19T18:09:54.887Z,27.92
2022-08-19T18:12:26.645Z,27.72
2022-08-19T18:14:55.131Z,27.91
2022-08-19T18:17:24.530Z,27.80
2022-08-19T18:19:52.902Z,27.92
2022-08-19T18:22:27.088Z,27.57
2022-08-19T18:24:57.968Z,27.85
2022-08-19T18:27:27.186Z,27.82
2022-08-19T18:29:59.935Z,27.80
2022-08-19T18:32:30.566Z,27.74
2022-08-19T18:34:59.058Z,27.73
2022-08-19T18:37:27.566Z,27.68
2022-08-19T18:40:15.105Z,27.61
2022-08-19T18:43:17.761Z,27.68
2022-08-19T18:46:03.752Z,27.56
2022-08-19T18:48:53.088Z,27.50
2022-08-19T18:51:24.203Z,27.52
2022-08-19T18:53:55.600Z,27.48
2022-08-19T18:56:29.341Z,27.55
2022-08-19T18:58:57.761Z,27.56
2022-08-19T19:01:29.484Z,27.36
2022-08-19T19:04:01.212Z,27.33
2022-08-19T19:06:34.788Z,27.40
2022-08-19T19:09:03.377Z,27.43
2022-08-19T19:11:37.341Z,27.47
2022-08-19T19:14:19.000Z,27.45
2022-08-19T19:16:58.348Z,27.29
2022-08-19T19:19:27.095Z,27.17
2022-08-19T19:21:56.864Z,26.83
2022-08-19T19:24:28.349Z,26.82
2022-08-19T19:27:00.331Z,26.67
2022-08-19T19:29:29.204Z,26.53
2022-08-19T19:31:57.668Z,26.43
2022-08-19T19:34:29.773Z,26.39
2022-08-19T19:36:59.164Z,26.27
2022-08-19T19:39:29.642Z,26.26
2022-08-19T19:42:21.208Z,26.08
2022-08-19T19:44:50.754Z,25.84
2022-08-19T19:47:19.364Z,25.67
2022-08-19T19:50:13.903Z,25.59
2022-08-19T19:52:40.410Z,25.76
2022-08-19T19:55:09.602Z,25.50
2022-08-19T19:57:40.325Z,25.60
2022-08-19T20:00:10.793Z,25.87
2022-08-19T20:02:39.186Z,25.80
2022-08-19T20:05:08.273Z,25.90
2022-08-19T20:07:54.439Z,26.09
2022-08-19T20:10:23.200Z,25.96
2022-08-19T20:12:54.914Z,25.61
2022-08-19T20:15:24.265Z,25.79
2022-08-19T20:17:52.521Z,25.56
2022-08-19T20:20:21.439Z,25.75
2022-08-19T20:22:49.759Z,25.74
2022-08-19T20:25:22.252Z,25.69
2022-08-19T20:27:51.480Z,25.64
2022-08-19T20:30:23.415Z,25.69
2022-08-19T20:32:52.075Z,25.81
2022-08-19T20:35:22.300Z,25.66
2022-08-19T20:37:54.927Z,25.61
2022-08-19T20:40:26.599Z,25.55
2022-08-19T20:42:55.398Z,25.72
2022-08-19T20:45:33.571Z,25.57
2022-08-19T20:48:03.202Z,25.76
2022-08-19T20:50:31.899Z,25.69
2022-08-19T20:53:00.712Z,25.76
2022-08-19T20:55:30.565Z,25.88
2022-08-19T20:57:59.283Z,25.56
2022-08-19T21:00:29.469Z,25.77
2022-08-19T21:02:58.431Z,25.57
2022-08-19T21:05:30.368Z,25.35
2022-08-19T21:07:59.275Z,25.40
2022-08-19T21:10:27.601Z,25.43
2022-08-19T21:12:55.979Z,25.49
2022-08-19T21:15:25.054Z,25.31
2022-08-19T21:17:54.849Z,25.42
2022-08-19T21:20:23.401Z,25.27
2022-08-19T21:22:52.380Z,25.53
2022-08-19T21:25:20.612Z,25.50
2022-08-19T21:27:48.981Z,25.36
2022-08-19T21:30:17.359Z,25.67
2022-08-19T21:32:48.258Z,25.49
2022-08-19T21:35:23.498Z,25.63
2022-08-19T21:37:52.280Z,25.51
2022-08-19T21:40:20.871Z,25.52
2022-08-19T21:42:49.052Z,25.36
2022-08-19T21:45:17.555Z,25.73
2022-08-19T21:47:46.120Z,25.59
2022-08-19T21:50:14.372Z,25.19
2022-08-19T21:52:44.268Z,25.48
2022-08-19T21:55:13.264Z,25.30
2022-08-19T21:57:41.613Z,25.43
2022-08-19T22:00:15.295Z,25.36
2022-08-19T22:02:44.428Z,25.49
2022-08-19T22:05:12.877Z,25.52
2022-08-19T22:07:42.738Z,25.41
2022-08-19T22:10:12.838Z,25.36
2022-08-19T22:12:51.276Z,25.43
2022-08-19T22:15:22.298Z,25.43
2022-08-19T22:17:51.115Z,25.36
2022-08-19T22:20:22.068Z,25.19
2022-08-19T22:22:53.489Z,25.26
2022-08-19T22:25:30.162Z,25.41
2022-08-19T22:28:01.637Z,25.38
2022-08-19T22:30:33.353Z,25.28
2022-08-19T22:33:03.778Z,25.23
2022-08-19T22:35:36.498Z,25.36
2022-08-19T22:38:06.473Z,24.81
2022-08-19T22:40:39.566Z,25.21
2022-08-19T22:43:10.740Z,24.71
2022-08-19T22:45:39.476Z,25.00
2022-08-19T22:48:09.236Z,24.61
2022-08-19T22:50:39.891Z,24.55
2022-08-19T22:53:08.445Z,24.44
2022-08-19T22:55:39.508Z,24.54
2022-08-19T22:58:07.758Z,24.57
2022-08-19T23:00:36.194Z,24.36
2022-08-19T23:03:04.957Z,24.49
2022-08-19T23:05:33.229Z,24.81
2022-08-19T23:08:05.485Z,24.98
2022-08-19T23:10:33.755Z,24.98
2022-08-19T23:13:03.335Z,25.07
2022-08-19T23:15:32.962Z,25.09
2022-08-19T23:18:02.791Z,25.07
2022-08-19T23:20:36.379Z,25.13
2022-08-19T23:23:06.352Z,25.02
2022-08-19T23:25:35.475Z,24.93
2022-08-19T23:28:25.606Z,24.96
2022-08-19T23:30:55.341Z,24.73
2022-08-19T23:33:25.449Z,24.80
2022-08-19T23:35:54.754Z,24.85
2022-08-19T23:38:23.898Z,24.82
2022-08-19T23:40:53.354Z,24.83
2022-08-19T23:43:25.135Z,25.05
2022-08-19T23:45:57.458Z,25.13
2022-08-19T23:48:26.133Z,25.17
2022-08-19T23:50:57.278Z,24.92
2022-08-19T23:53:25.702Z,25.12
2022-08-19T23:55:54.208Z,24.84
2022-08-19T23:58:24.153Z,25.24
